Ncc Najd — HZAK — position and weather

sailwx.info

Track history (hours):
 
Tides and Currents Weather Stations Pressure Air Temp Water Temp Dewpoint Dewpoint Depression Visibility Wind Speed Wind Dir Waves Ship Positions

Ncc Najd

Last reported at 2014-Oct-01 10:24 UTC. Time now 2014-Oct-25 11:56 UTC.
Position N 01°12' E 103°39'.
Warning: this ship's position is 24 days out of date.

Length 183 m; draft 7.5 m.

Type: Ship. MMSI: 403579000.

Date/timePositionNaut miles runAvg speedWind from/ knotsBaromVisibWave heightAir tempDewpointWater temp
2014-Oct-01 10:24N 01°12' E 103°39'1 0.7
2014-Oct-01 08:31N 01°13' E 103°39'0 0.1
2014-Oct-01 07:28N 01°13' E 103°40'0 0.1
2014-Oct-01 06:31N 01°13' E 103°39'0 0.0
2014-Oct-01 05:28N 01°13' E 103°39'0 0.0
2014-Oct-01 04:31N 01°13' E 103°39'0 0.0
2014-Oct-01 03:31N 01°13' E 103°39'0 0.1
2014-Oct-01 02:31N 01°13' E 103°39'0 0.0
2014-Oct-01 01:31N 01°13' E 103°39'0 0.0
2014-Oct-01 00:31N 01°13' E 103°39'0 0.1
2014-Sep-30 23:25N 01°13' E 103°39'0 0.2
2014-Sep-30 22:34N 01°13' E 103°39'4 3.7
2014-Sep-30 21:33N 01°10' E 103°42'7 6.8
2014-Sep-30 20:34N 01°11' E 103°48'10 9.8
2014-Sep-30 19:34N 01°15' E 103°57'10 9.9
2014-Sep-30 18:33N 01°16' E 104°07'  
2014-Sep-26 08:20N 21°37' E 119°11'1114.3
2014-Sep-26 07:32N 21°47' E 119°17'1414.2
2014-Sep-26 06:33N 21°59' E 119°25'1414.1
2014-Sep-26 05:33N 22°11' E 119°33'1513.8
2014-Sep-26 04:27N 22°24' E 119°41'1313.8
2014-Sep-26 03:33N 22°34' E 119°48'1414.5
2014-Sep-26 02:33N 22°48' E 119°51'43614.5
2014-Sep-24 20:26N 29°11' E 123°42'2115.9
2014-Sep-24 19:06N 29°32' E 123°39'2616.0
2014-Sep-24 17:27N 29°57' E 123°29'5714.2
2014-Sep-24 13:27N 30°48' E 122°60'1414.6
2014-Sep-24 12:28N 30°60' E 122°51'5112.7
2014-Sep-24 08:26N 31°16' E 121°54'1314.4
2014-Sep-24 07:32N 31°21' E 121°40'1010.6
2014-Sep-24 06:33N 31°26' E 121°30'10 9.6
2014-Sep-24 05:33N 31°32' E 121°21'1312.2
2014-Sep-24 04:31N 31°41' E 121°11'1111.5
2014-Sep-24 03:33N 31°47' E 120°59'1212.5
2014-Sep-24 02:34N 31°57' E 120°52'1312.5
2014-Sep-24 01:33N 31°60' E 120°37'8 8.0
2014-Sep-24 00:32N 31°60' E 120°27'0 0.0
2014-Sep-23 23:32N 31°60' E 120°27'0 0.0
2014-Sep-23 22:32N 31°60' E 120°27'0 0.0
2014-Sep-23 21:32N 31°60' E 120°27'0 0.0
2014-Sep-23 20:29N 31°60' E 120°27'0 0.0
2014-Sep-23 19:29N 31°60' E 120°27'0 0.0
2014-Sep-23 18:29N 31°60' E 120°27'0 0.0
2014-Sep-23 17:32N 31°60' E 120°27'0 0.0
2014-Sep-23 16:32N 31°60' E 120°27'0 0.0
2014-Sep-23 15:32N 31°60' E 120°27'0 0.0
2014-Sep-23 14:32N 31°60' E 120°27'0 0.0
2014-Sep-23 13:32N 31°60' E 120°27'0 0.0
2014-Sep-23 12:29N 31°60' E 120°27'0 0.0
2014-Sep-23 11:32N 31°60' E 120°27'0 0.0
2014-Sep-23 10:29N 31°60' E 120°27'0 0.0
2014-Sep-23 09:32N 31°60' E 120°27'0 0.0
2014-Sep-23 08:32N 31°60' E 120°27'0 0.0
2014-Sep-23 07:29N 31°60' E 120°27'0 0.0
2014-Sep-23 06:32N 31°60' E 120°27'0 0.0
2014-Sep-23 05:32N 31°60' E 120°27'0 0.0
2014-Sep-23 04:25N 31°60' E 120°27'3 3.2
2014-Sep-23 03:34N 32°02' E 120°29'3 2.8
2014-Sep-23 02:28N 32°01' E 120°33'0 0.0
2014-Sep-23 01:31N 32°01' E 120°33'0 0.0
2014-Sep-23 00:28N 32°01' E 120°33'0 0.0
2014-Sep-22 23:31N 32°01' E 120°33'0 0.0
2014-Sep-22 22:31N 32°01' E 120°33'0 0.0
2014-Sep-22 21:31N 32°01' E 120°33'0 0.0
2014-Sep-22 20:31N 32°01' E 120°33'0 0.1
2014-Sep-22 19:28N 32°01' E 120°33'0 0.1
2014-Sep-22 18:29N 32°01' E 120°33'0 0.0
2014-Sep-22 17:31N 32°01' E 120°33'0 0.1
2014-Sep-22 16:29N 32°01' E 120°33'0 0.1
2014-Sep-22 15:28N 32°01' E 120°33'0 0.0
2014-Sep-22 14:31N 32°01' E 120°33'0 0.0
2014-Sep-22 13:31N 32°01' E 120°33'0 0.0
2014-Sep-22 12:28N 32°01' E 120°33'0 0.0
2014-Sep-22 11:31N 32°01' E 120°33'0 0.0
2014-Sep-22 10:31N 32°01' E 120°33'0 0.0
2014-Sep-22 09:31N 32°01' E 120°33'0 0.0
2014-Sep-22 08:31N 32°01' E 120°33'0 0.1
2014-Sep-22 07:28N 32°01' E 120°33'0 0.1
2014-Sep-22 06:31N 32°01' E 120°33'0 0.1
2014-Sep-22 05:31N 32°01' E 120°33'0 0.1
2014-Sep-22 04:31N 32°01' E 120°33'0 0.1
2014-Sep-22 03:31N 32°01' E 120°33'0 0.0
2014-Sep-22 02:29N 32°01' E 120°33'0 0.0
2014-Sep-22 01:28N 32°01' E 120°33'0 0.0
2014-Sep-22 00:31N 32°01' E 120°33'0 0.0
2014-Sep-21 23:31N 32°01' E 120°33'0 0.0
2014-Sep-21 22:31N 32°01' E 120°33'0 0.0
2014-Sep-21 21:31N 32°01' E 120°33'0 0.0
2014-Sep-21 20:31N 32°01' E 120°33'0 0.0
2014-Sep-21 19:31N 32°01' E 120°33'0 0.1
2014-Sep-21 18:31N 32°01' E 120°33'0 0.1
2014-Sep-21 17:31N 32°01' E 120°33'0 0.1
2014-Sep-21 16:31N 32°01' E 120°33'0 0.1
2014-Sep-21 15:31N 32°01' E 120°33'0 0.0
2014-Sep-21 14:31N 32°01' E 120°33'0 0.0
2014-Sep-21 13:28N 32°01' E 120°33'0 0.0
2014-Sep-21 12:31N 32°01' E 120°33'0 0.0
2014-Sep-21 11:31N 32°01' E 120°33'0 0.0
2014-Sep-21 10:31N 32°01' E 120°33'  
Track history (hours):
 
Tides and Currents Weather Stations Pressure Air Temp Water Temp Dewpoint Dewpoint Depression Visibility Wind Speed Wind Dir Waves Ship Positions

Ncc Najd

Last reported at 2014-Oct-01 10:24 UTC. Time now 2014-Oct-25 11:56 UTC.
Position N 01°12' E 103°39'.
Warning: this ship's position is 24 days out of date.

Length 183 m; draft 7.5 m.

Type: Ship. MMSI: 403579000.

Date/timePositionNaut miles runAvg speedWind from/ knotsBaromVisibWave heightAir tempDewpointWater temp
2014-Oct-01 10:24N 01°12' E 103°39'1 0.7
2014-Oct-01 08:31N 01°13' E 103°39'0 0.1
2014-Oct-01 07:28N 01°13' E 103°40'0 0.1
2014-Oct-01 06:31N 01°13' E 103°39'0 0.0
2014-Oct-01 05:28N 01°13' E 103°39'0 0.0
2014-Oct-01 04:31N 01°13' E 103°39'0 0.0
2014-Oct-01 03:31N 01°13' E 103°39'0 0.1
2014-Oct-01 02:31N 01°13' E 103°39'0 0.0
2014-Oct-01 01:31N 01°13' E 103°39'0 0.0
2014-Oct-01 00:31N 01°13' E 103°39'0 0.1
2014-Sep-30 23:25N 01°13' E 103°39'0 0.2
2014-Sep-30 22:34N 01°13' E 103°39'4 3.7
2014-Sep-30 21:33N 01°10' E 103°42'7 6.8
2014-Sep-30 20:34N 01°11' E 103°48'10 9.8
2014-Sep-30 19:34N 01°15' E 103°57'10 9.9
2014-Sep-30 18:33N 01°16' E 104°07'  
2014-Sep-26 08:20N 21°37' E 119°11'1114.3
2014-Sep-26 07:32N 21°47' E 119°17'1414.2
2014-Sep-26 06:33N 21°59' E 119°25'1414.1
2014-Sep-26 05:33N 22°11' E 119°33'1513.8
2014-Sep-26 04:27N 22°24' E 119°41'1313.8
2014-Sep-26 03:33N 22°34' E 119°48'1414.5
2014-Sep-26 02:33N 22°48' E 119°51'43614.5
2014-Sep-24 20:26N 29°11' E 123°42'2115.9
2014-Sep-24 19:06N 29°32' E 123°39'2616.0
2014-Sep-24 17:27N 29°57' E 123°29'5714.2
2014-Sep-24 13:27N 30°48' E 122°60'1414.6
2014-Sep-24 12:28N 30°60' E 122°51'5112.7
2014-Sep-24 08:26N 31°16' E 121°54'1314.4
2014-Sep-24 07:32N 31°21' E 121°40'1010.6
2014-Sep-24 06:33N 31°26' E 121°30'10 9.6
2014-Sep-24 05:33N 31°32' E 121°21'1312.2
2014-Sep-24 04:31N 31°41' E 121°11'1111.5
2014-Sep-24 03:33N 31°47' E 120°59'1212.5
2014-Sep-24 02:34N 31°57' E 120°52'1312.5
2014-Sep-24 01:33N 31°60' E 120°37'8 8.0
2014-Sep-24 00:32N 31°60' E 120°27'0 0.0
2014-Sep-23 23:32N 31°60' E 120°27'0 0.0
2014-Sep-23 22:32N 31°60' E 120°27'0 0.0
2014-Sep-23 21:32N 31°60' E 120°27'0 0.0
2014-Sep-23 20:29N 31°60' E 120°27'0 0.0
2014-Sep-23 19:29N 31°60' E 120°27'0 0.0
2014-Sep-23 18:29N 31°60' E 120°27'0 0.0
2014-Sep-23 17:32N 31°60' E 120°27'0 0.0
2014-Sep-23 16:32N 31°60' E 120°27'0 0.0
2014-Sep-23 15:32N 31°60' E 120°27'0 0.0
2014-Sep-23 14:32N 31°60' E 120°27'0 0.0
2014-Sep-23 13:32N 31°60' E 120°27'0 0.0
2014-Sep-23 12:29N 31°60' E 120°27'0 0.0
2014-Sep-23 11:32N 31°60' E 120°27'0 0.0
2014-Sep-23 10:29N 31°60' E 120°27'0 0.0
2014-Sep-23 09:32N 31°60' E 120°27'0 0.0
2014-Sep-23 08:32N 31°60' E 120°27'0 0.0
2014-Sep-23 07:29N 31°60' E 120°27'0 0.0
2014-Sep-23 06:32N 31°60' E 120°27'0 0.0
2014-Sep-23 05:32N 31°60' E 120°27'0 0.0
2014-Sep-23 04:25N 31°60' E 120°27'3 3.2
2014-Sep-23 03:34N 32°02' E 120°29'3 2.8
2014-Sep-23 02:28N 32°01' E 120°33'0 0.0
2014-Sep-23 01:31N 32°01' E 120°33'0 0.0
2014-Sep-23 00:28N 32°01' E 120°33'0 0.0
2014-Sep-22 23:31N 32°01' E 120°33'0 0.0
2014-Sep-22 22:31N 32°01' E 120°33'0 0.0
2014-Sep-22 21:31N 32°01' E 120°33'0 0.0
2014-Sep-22 20:31N 32°01' E 120°33'0 0.1
2014-Sep-22 19:28N 32°01' E 120°33'0 0.1
2014-Sep-22 18:29N 32°01' E 120°33'0 0.0
2014-Sep-22 17:31N 32°01' E 120°33'0 0.1
2014-Sep-22 16:29N 32°01' E 120°33'0 0.1
2014-Sep-22 15:28N 32°01' E 120°33'0 0.0
2014-Sep-22 14:31N 32°01' E 120°33'0 0.0
2014-Sep-22 13:31N 32°01' E 120°33'0 0.0
2014-Sep-22 12:28N 32°01' E 120°33'0 0.0
2014-Sep-22 11:31N 32°01' E 120°33'0 0.0
2014-Sep-22 10:31N 32°01' E 120°33'0 0.0
2014-Sep-22 09:31N 32°01' E 120°33'0 0.0
2014-Sep-22 08:31N 32°01' E 120°33'0 0.1
2014-Sep-22 07:28N 32°01' E 120°33'0 0.1
2014-Sep-22 06:31N 32°01' E 120°33'0 0.1
2014-Sep-22 05:31N 32°01' E 120°33'0 0.1
2014-Sep-22 04:31N 32°01' E 120°33'0 0.1
2014-Sep-22 03:31N 32°01' E 120°33'0 0.0
2014-Sep-22 02:29N 32°01' E 120°33'0 0.0
2014-Sep-22 01:28N 32°01' E 120°33'0 0.0
2014-Sep-22 00:31N 32°01' E 120°33'0 0.0
2014-Sep-21 23:31N 32°01' E 120°33'0 0.0
2014-Sep-21 22:31N 32°01' E 120°33'0 0.0
2014-Sep-21 21:31N 32°01' E 120°33'0 0.0
2014-Sep-21 20:31N 32°01' E 120°33'0 0.0
2014-Sep-21 19:31N 32°01' E 120°33'0 0.1
2014-Sep-21 18:31N 32°01' E 120°33'0 0.1
2014-Sep-21 17:31N 32°01' E 120°33'0 0.1
2014-Sep-21 16:31N 32°01' E 120°33'0 0.1
2014-Sep-21 15:31N 32°01' E 120°33'0 0.0
2014-Sep-21 14:31N 32°01' E 120°33'0 0.0
2014-Sep-21 13:28N 32°01' E 120°33'0 0.0
2014-Sep-21 12:31N 32°01' E 120°33'0 0.0
2014-Sep-21 11:31N 32°01' E 120°33'0 0.0
2014-Sep-21 10:31N 32°01' E 120°33'  

Dump ship's entire track history